Time;durP1;ratioP1;P1;durP2;ratioP2;P2;SDS_P1;SDS_P2;PMS_P1;PMS_P2;Temp;Humidity;BMP_temperature;BMP_pressure;BME280_temperature;BME280_humidity;BME280_pressure;Samples;Min_cycle;Max_cycle;Signal;HPM_P1;HPM_P2
2023/12/07 00:00:33;;;;;;;14.4;9.4;;;;;;;2.77;98.7373;938.4323;;;;
2023/12/07 00:02:59;;;;;;;15.2;10.6;;;;;;;2.71;99.19629;938.5291;;;;
2023/12/07 00:05:24;;;;;;;15.3;10.8;;;;;;;2.7;99.43848;938.5327;;;;
2023/12/07 00:07:52;;;;;;;17.7;11.7;;;;;;;2.68;99.61523;938.4864;;;;
2023/12/07 00:10:17;;;;;;;15.6;11.3;;;;;;;2.68;99.75;938.4754;;;;
2023/12/07 00:12:46;;;;;;;16;11.1;;;;;;;2.73;99.48047;938.534;;;;
2023/12/07 00:15:23;;;;;;;15.8;10.1;;;;;;;2.79;99.37012;938.5212;;;;
2023/12/07 00:17:48;;;;;;;14.3;9.7;;;;;;;2.75;99.48438;938.5449;;;;
2023/12/07 00:20:13;;;;;;;13.4;9.4;;;;;;;2.72;99.61035;938.5602;;;;
2023/12/07 00:22:43;;;;;;;12.9;9;;;;;;;2.75;99.50684;938.5253;;;;
2023/12/07 00:25:09;;;;;;;13.1;8.7;;;;;;;2.76;99.30762;938.5783;;;;
2023/12/07 00:27:36;;;;;;;12.5;9.1;;;;;;;2.71;99.52051;938.6566;;;;
2023/12/07 00:30:01;;;;;;;11.7;8.4;;;;;;;2.66;99.6875;938.6359;;;;
2023/12/07 00:32:27;;;;;;;13.3;9.5;;;;;;;2.7;99.3623;938.6666;;;;
2023/12/07 00:34:51;;;;;;;16.2;11.1;;;;;;;2.68;99.4248;938.6672;;;;
2023/12/07 00:37:16;;;;;;;20.5;12.3;;;;;;;2.68;99.50293;938.7725;;;;
2023/12/07 00:39:42;;;;;;;16.3;11;;;;;;;2.7;99.30371;938.7527;;;;
2023/12/07 00:42:07;;;;;;;16.9;11.4;;;;;;;2.65;99.42773;938.7377;;;;
2023/12/07 00:44:33;;;;;;;15.8;11.8;;;;;;;2.71;99.39746;938.7681;;;;
2023/12/07 00:46:58;;;;;;;13.3;9.4;;;;;;;2.66;99.29492;938.7498;;;;
2023/12/07 00:49:26;;;;;;;11.8;8.2;;;;;;;2.65;99.16992;938.7502;;;;
2023/12/07 00:51:51;;;;;;;10.9;6.8;;;;;;;2.69;98.5957;938.6997;;;;
2023/12/07 00:54:18;;;;;;;8.9;6.3;;;;;;;2.76;97.68164;938.7859;;;;
2023/12/07 00:56:43;;;;;;;9.3;6.7;;;;;;;2.75;97.71289;938.7729;;;;
2023/12/07 00:59:08;;;;;;;9;6.5;;;;;;;2.76;97.71484;938.8078;;;;
2023/12/07 01:01:38;;;;;;;7.6;5.7;;;;;;;2.78;96.99219;938.8558;;;;
2023/12/07 01:04:01;;;;;;;7.2;5.7;;;;;;;2.78;97.13574;938.8785;;;;
2023/12/07 01:06:28;;;;;;;8.7;6.1;;;;;;;2.7;97.12012;938.8969;;;;
2023/12/07 01:08:52;;;;;;;7.9;6;;;;;;;2.75;97.34277;938.8516;;;;
2023/12/07 01:11:20;;;;;;;8.2;5.6;;;;;;;2.69;96.75879;938.9735;;;;
2023/12/07 01:13:44;;;;;;;7.6;5.3;;;;;;;2.65;96.95996;938.9724;;;;
2023/12/07 01:16:11;;;;;;;7.7;5.7;;;;;;;2.7;97.19629;938.9854;;;;
2023/12/07 01:18:37;;;;;;;8.5;5.6;;;;;;;2.7;96.84863;939.0358;;;;
2023/12/07 01:21:04;;;;;;;7.4;5.4;;;;;;;2.76;96.0332;939.006;;;;
2023/12/07 01:23:29;;;;;;;7.7;5.5;;;;;;;2.72;96.06836;939.123;;;;
2023/12/07 01:26:01;;;;;;;7.3;5.1;;;;;;;2.76;94.44141;939.127;;;;
2023/12/07 01:28:23;;;;;;;6.6;4.6;;;;;;;2.78;93.53711;939.1333;;;;
2023/12/07 01:30:51;;;;;;;6.5;4.7;;;;;;;2.76;94.05078;939.1578;;;;
2023/12/07 01:33:16;;;;;;;6.3;4.9;;;;;;;2.73;93.59375;939.2146;;;;
2023/12/07 01:35:41;;;;;;;7.3;4.8;;;;;;;2.87;93.0293;939.185;;;;
2023/12/07 01:38:07;;;;;;;6.6;4.5;;;;;;;2.81;92.41211;939.2222;;;;
2023/12/07 01:40:32;;;;;;;5.5;4.7;;;;;;;2.75;92.48828;939.1691;;;;
2023/12/07 01:43:00;;;;;;;5.7;3.7;;;;;;;2.96;91.53711;939.2045;;;;
2023/12/07 01:45:25;;;;;;;5.4;4;;;;;;;2.93;91.15918;939.1867;;;;
2023/12/07 01:47:52;;;;;;;4.5;3.9;;;;;;;2.94;91.09375;939.228;;;;
2023/12/07 01:50:17;;;;;;;4.8;4;;;;;;;2.79;92.41797;939.2368;;;;
2023/12/07 01:52:42;;;;;;;5.7;3.9;;;;;;;2.82;92.38086;939.2281;;;;
2023/12/07 01:55:07;;;;;;;5.3;3.9;;;;;;;2.82;91.23633;939.2628;;;;
2023/12/07 01:57:35;;;;;;;5.2;4;;;;;;;2.75;91.70508;939.3297;;;;
2023/12/07 02:00:00;;;;;;;5.3;4.3;;;;;;;2.75;92.17578;939.3738;;;;
2023/12/07 02:02:32;;;;;;;6.4;4.4;;;;;;;2.71;92.96289;939.3477;;;;
2023/12/07 02:05:01;;;;;;;6.5;4.6;;;;;;;2.74;92.93457;939.3566;;;;
2023/12/07 02:07:30;;;;;;;5.9;4.6;;;;;;;2.74;93.30469;939.4347;;;;
2023/12/07 02:09:55;;;;;;;5.5;4.2;;;;;;;2.75;93.72168;939.4655;;;;
2023/12/07 02:12:22;;;;;;;5.3;4;;;;;;;2.73;93.81836;939.4662;;;;
2023/12/07 02:14:47;;;;;;;5.2;4;;;;;;;2.74;93.70801;939.529;;;;
2023/12/07 02:17:12;;;;;;;6;4.3;;;;;;;2.77;93.78125;939.5614;;;;
2023/12/07 02:19:38;;;;;;;5.7;4.3;;;;;;;2.83;93.24414;939.6144;;;;
2023/12/07 02:22:02;;;;;;;5.7;4.1;;;;;;;2.8;93.5293;939.631;;;;
2023/12/07 02:24:27;;;;;;;6.4;4.2;;;;;;;2.84;91.50977;939.5269;;;;
2023/12/07 02:26:53;;;;;;;5.7;4.4;;;;;;;2.86;91.17871;939.6434;;;;
2023/12/07 02:29:20;;;;;;;6.5;4.3;;;;;;;2.9;90.1084;939.6722;;;;
2023/12/07 02:31:45;;;;;;;5.6;4.5;;;;;;;2.96;89.79785;939.6639;;;;
2023/12/07 02:34:12;;;;;;;6.5;4.3;;;;;;;3.02;88.73242;939.7601;;;;
2023/12/07 02:36:37;;;;;;;7;4.4;;;;;;;2.92;88.82422;939.6984;;;;
2023/12/07 02:39:05;;;;;;;7;4.8;;;;;;;2.91;88.94531;939.676;;;;
2023/12/07 02:41:30;;;;;;;6.7;4.7;;;;;;;2.83;89.07617;939.7318;;;;
2023/12/07 02:43:57;;;;;;;6.7;4.5;;;;;;;2.77;89.22949;939.6801;;;;
2023/12/07 02:46:22;;;;;;;7;5;;;;;;;2.7;89.87793;939.6862;;;;
2023/12/07 02:48:48;;;;;;;7;4.7;;;;;;;2.71;89.92383;939.6501;;;;
2023/12/07 02:51:13;;;;;;;6.5;4.9;;;;;;;2.7;90.42676;939.712;;;;
2023/12/07 02:53:38;;;;;;;7.6;5.2;;;;;;;2.85;88.84277;939.7883;;;;
2023/12/07 02:56:03;;;;;;;7.7;5.3;;;;;;;2.78;88.95117;939.8158;;;;
2023/12/07 02:58:31;;;;;;;7.8;5.3;;;;;;;2.79;88.67285;939.7642;;;;
2023/12/07 03:00:56;;;;;;;8.1;5.4;;;;;;;2.65;88.87988;939.8209;;;;
2023/12/07 03:03:25;;;;;;;8.5;5.7;;;;;;;2.64;89.64941;939.8272;;;;
2023/12/07 03:05:50;;;;;;;7.7;5.5;;;;;;;2.68;89.8291;939.8881;;;;
2023/12/07 03:08:15;;;;;;;8.9;5.5;;;;;;;2.76;89.2832;939.8881;;;;
2023/12/07 03:10:40;;;;;;;7.7;5.6;;;;;;;2.72;89.12793;939.8236;;;;
2023/12/07 03:13:07;;;;;;;9;6.3;;;;;;;2.71;89.28516;939.8705;;;;
2023/12/07 03:15:33;;;;;;;8.1;5.8;;;;;;;2.68;89.58008;939.8195;;;;
2023/12/07 03:17:59;;;;;;;8.8;6.1;;;;;;;2.67;88.8252;939.8552;;;;
2023/12/07 03:20:24;;;;;;;7.8;5.8;;;;;;;2.63;89.35547;939.8928;;;;
2023/12/07 03:22:53;;;;;;;9.4;6.4;;;;;;;2.63;89.37988;939.8977;;;;
2023/12/07 03:25:19;;;;;;;9.2;6.2;;;;;;;2.67;89.34082;939.9401;;;;
2023/12/07 03:27:45;;;;;;;9.1;6.3;;;;;;;2.71;89.24023;939.9253;;;;
2023/12/07 03:30:09;;;;;;;9.8;6.3;;;;;;;2.76;88.96973;939.9794;;;;
2023/12/07 03:32:35;;;;;;;9.6;6.8;;;;;;;2.7;89.21387;940.0083;;;;
2023/12/07 03:35:01;;;;;;;10.2;6.7;;;;;;;2.73;89.01074;940.0584;;;;
2023/12/07 03:37:26;;;;;;;8.7;6;;;;;;;2.72;89.8252;940.0901;;;;
2023/12/07 03:39:54;;;;;;;10.6;6.4;;;;;;;2.62;90.36426;940.0963;;;;
2023/12/07 03:42:19;;;;;;;10.2;7;;;;;;;2.58;90.33496;940.0511;;;;
2023/12/07 03:44:47;;;;;;;10.7;6.7;;;;;;;2.78;89.25586;939.9684;;;;
2023/12/07 03:47:11;;;;;;;8.5;6.1;;;;;;;2.68;89.54688;940.0458;;;;
2023/12/07 03:49:41;;;;;;;9.9;6;;;;;;;2.62;89.63379;940.0048;;;;
2023/12/07 03:52:05;;;;;;;8.3;6.2;;;;;;;2.63;89.34473;940.0028;;;;
2023/12/07 03:54:35;;;;;;;9.1;6.2;;;;;;;2.58;89.6709;940.0856;;;;
2023/12/07 03:57:02;;;;;;;8;5.9;;;;;;;2.65;89.05859;940.0472;;;;
2023/12/07 03:59:27;;;;;;;8.7;5.6;;;;;;;2.72;88.28711;940.0789;;;;
2023/12/07 04:02:32;;;;;;;8;5.5;;;;;;;2.68;88.16797;940.0829;;;;
2023/12/07 04:05:01;;;;;;;7.6;5.8;;;;;;;2.71;88.18652;940.093;;;;
2023/12/07 04:07:22;;;;;;;10.7;6.6;;;;;;;2.57;88.66113;940.0804;;;;
2023/12/07 04:09:47;;;;;;;10;6.7;;;;;;;2.58;88.63086;940.0959;;;;
2023/12/07 04:12:13;;;;;;;10.1;6.8;;;;;;;2.55;88.7041;940.1017;;;;
2023/12/07 04:14:38;;;;;;;9;6.4;;;;;;;2.53;89.21387;940.1211;;;;
2023/12/07 04:17:07;;;;;;;9.1;5.5;;;;;;;2.49;89.71973;940.0895;;;;
2023/12/07 04:19:31;;;;;;;10.4;6;;;;;;;2.55;89.28223;940.1792;;;;
2023/12/07 04:21:56;;;;;;;7.8;6.1;;;;;;;2.49;89.36133;940.2326;;;;
2023/12/07 04:24:26;;;;;;;9.7;6.2;;;;;;;2.5;88.79297;940.1892;;;;
2023/12/07 04:26:52;;;;;;;9.7;5.8;;;;;;;2.58;87.68945;940.1933;;;;
2023/12/07 04:29:22;;;;;;;9.3;6;;;;;;;2.48;88.22949;940.1984;;;;
2023/12/07 04:31:47;;;;;;;9.8;6.6;;;;;;;2.56;87.87402;940.2169;;;;
2023/12/07 04:34:14;;;;;;;8.5;5.9;;;;;;;2.48;88.67578;940.2117;;;;
2023/12/07 04:36:41;;;;;;;9;6.2;;;;;;;2.49;88.33008;940.235;;;;
2023/12/07 04:39:08;;;;;;;10;6.8;;;;;;;2.44;88.58984;940.2213;;;;
2023/12/07 04:41:33;;;;;;;10.3;7;;;;;;;2.41;89.06348;940.2678;;;;
2023/12/07 04:44:03;;;;;;;10.6;7;;;;;;;2.41;89.32129;940.2967;;;;
2023/12/07 04:46:35;;;;;;;9.7;6.9;;;;;;;2.4;89.7002;940.3714;;;;
2023/12/07 04:48:58;;;;;;;10;7;;;;;;;2.33;90.23633;940.3631;;;;
2023/12/07 04:51:23;;;;;;;11.8;7.2;;;;;;;2.4;90.59863;940.324;;;;
2023/12/07 04:53:49;;;;;;;11.4;7.2;;;;;;;2.35;91.41406;940.3582;;;;
2023/12/07 04:56:15;;;;;;;11.5;6.7;;;;;;;2.28;91.88184;940.4189;;;;
2023/12/07 04:58:42;;;;;;;9.5;6.7;;;;;;;2.29;91.4248;940.2731;;;;
2023/12/07 05:01:07;;;;;;;11.3;6.8;;;;;;;2.29;91.34668;940.3127;;;;
2023/12/07 05:03:35;;;;;;;9.7;6.4;;;;;;;2.29;91.36914;940.3312;;;;
2023/12/07 05:06:00;;;;;;;10.5;7.3;;;;;;;2.29;91.6709;940.2985;;;;
2023/12/07 05:08:26;;;;;;;9.9;7;;;;;;;2.31;92.29102;940.2623;;;;
2023/12/07 05:10:51;;;;;;;9.5;6.8;;;;;;;2.32;92.91992;940.3081;;;;
2023/12/07 05:13:20;;;;;;;12.5;7.3;;;;;;;2.29;93.0957;940.3057;;;;
2023/12/07 05:15:46;;;;;;;10.6;7.3;;;;;;;2.33;92.4873;940.3323;;;;
2023/12/07 05:18:13;;;;;;;11.5;7.2;;;;;;;2.34;91.89551;940.325;;;;
2023/12/07 05:20:39;;;;;;;13.6;8.6;;;;;;;2.35;92.41309;940.2868;;;;
2023/12/07 05:23:04;;;;;;;26.8;15.8;;;;;;;2.53;92.2041;940.2366;;;;
2023/12/07 05:25:29;;;;;;;43.7;26;;;;;;;2.5;92.37891;940.2261;;;;
2023/12/07 05:28:01;;;;;;;22.8;14.6;;;;;;;2.43;93.08008;940.252;;;;
2023/12/07 05:30:28;;;;;;;16.9;11.1;;;;;;;2.38;93.56152;940.2369;;;;
2023/12/07 05:32:53;;;;;;;15.5;10.6;;;;;;;2.36;93.92676;940.2623;;;;
2023/12/07 05:35:21;;;;;;;18.6;12.4;;;;;;;2.3;94.43066;940.2383;;;;
2023/12/07 05:37:46;;;;;;;21.2;13.8;;;;;;;2.33;94.45898;940.2428;;;;
2023/12/07 05:40:13;;;;;;;34.8;21.6;;;;;;;2.48;93.71973;940.2582;;;;
2023/12/07 05:42:39;;;;;;;35.5;21.1;;;;;;;2.45;93.49902;940.3409;;;;
2023/12/07 05:45:06;;;;;;;29.3;18.2;;;;;;;2.37;93.94043;940.3467;;;;
2023/12/07 05:47:29;;;;;;;38.9;21.1;;;;;;;2.39;94;940.3209;;;;
2023/12/07 05:49:59;;;;;;;58.7;30.1;;;;;;;2.41;94.12988;940.2585;;;;
2023/12/07 05:52:24;;;;;;;43.9;22.8;;;;;;;2.38;93.91992;940.2985;;;;
2023/12/07 05:54:51;;;;;;;80.2;38.4;;;;;;;2.29;94.3252;940.2715;;;;
2023/12/07 05:57:16;;;;;;;84.7;40.5;;;;;;;2.28;94.36816;940.2516;;;;
2023/12/07 05:59:43;;;;;;;51.4;23.9;;;;;;;2.3;93.85938;940.2589;;;;
2023/12/07 06:02:10;;;;;;;23.1;13.1;;;;;;;2.26;93.62305;940.3473;;;;
2023/12/07 06:04:39;;;;;;;13.7;8.2;;;;;;;2.22;94.09863;940.3781;;;;
2023/12/07 06:07:04;;;;;;;11.6;8;;;;;;;2.16;94.29492;940.3441;;;;
2023/12/07 06:09:30;;;;;;;10.6;7.7;;;;;;;2.16;94.3418;940.3491;;;;
2023/12/07 06:11:54;;;;;;;12.8;7.4;;;;;;;2.17;94.23242;940.3527;;;;
2023/12/07 06:14:23;;;;;;;11.2;7.6;;;;;;;2.18;94.4248;940.4089;;;;
2023/12/07 06:16:48;;;;;;;13.6;8.1;;;;;;;2.2;94.47559;940.4294;;;;
2023/12/07 06:19:17;;;;;;;12.4;7.8;;;;;;;2.21;94.4082;940.4661;;;;
2023/12/07 06:21:43;;;;;;;11.3;7.8;;;;;;;2.16;94.46582;940.4709;;;;
2023/12/07 06:24:07;;;;;;;13;7.4;;;;;;;2.13;94.72559;940.4725;;;;
2023/12/07 06:26:33;;;;;;;13.9;7.9;;;;;;;2.16;94.85547;940.4565;;;;
2023/12/07 06:28:58;;;;;;;13.6;8.2;;;;;;;2.16;95.09277;940.4889;;;;
2023/12/07 06:31:26;;;;;;;13.6;9;;;;;;;2.19;95.23242;940.4895;;;;
2023/12/07 06:33:50;;;;;;;17.7;10.2;;;;;;;2.19;95.22168;940.52;;;;
2023/12/07 06:36:19;;;;;;;16.1;9.8;;;;;;;2.16;95.42578;940.4157;;;;
2023/12/07 06:38:45;;;;;;;17.9;10.2;;;;;;;2.22;95.14941;940.5356;;;;
2023/12/07 06:41:12;;;;;;;24.2;12.4;;;;;;;2.21;95.35059;940.4562;;;;
2023/12/07 06:43:37;;;;;;;21.9;11.8;;;;;;;2.21;95.38281;940.5078;;;;
2023/12/07 06:46:04;;;;;;;13;8;;;;;;;2.13;95.71094;940.5371;;;;
2023/12/07 06:48:29;;;;;;;12.7;7.5;;;;;;;2.11;95.87695;940.5198;;;;
2023/12/07 06:50:56;;;;;;;11.7;8.1;;;;;;;2.14;95.8584;940.5005;;;;
2023/12/07 06:53:21;;;;;;;13.4;8.5;;;;;;;2.16;95.84277;940.6051;;;;
2023/12/07 06:55:48;;;;;;;22.3;12.7;;;;;;;2.13;95.70215;940.6479;;;;
2023/12/07 06:58:13;;;;;;;16.2;9.7;;;;;;;2.12;95.35254;940.6498;;;;
2023/12/07 07:00:42;;;;;;;13.4;7.6;;;;;;;2.1;95.49219;940.6685;;;;
2023/12/07 07:03:12;;;;;;;12.7;7.5;;;;;;;2.12;95.63281;940.6465;;;;
2023/12/07 07:05:37;;;;;;;11.7;7.7;;;;;;;2.14;95.60156;940.6717;;;;
2023/12/07 07:08:06;;;;;;;11.7;7.7;;;;;;;2.17;95.56445;940.6583;;;;
2023/12/07 07:10:30;;;;;;;13.4;8.7;;;;;;;2.21;95.4834;940.653;;;;
2023/12/07 07:12:57;;;;;;;16.1;9.8;;;;;;;2.2;95.53906;940.6509;;;;
2023/12/07 07:15:24;;;;;;;15.7;9.3;;;;;;;2.26;95.50684;940.6453;;;;
2023/12/07 07:17:52;;;;;;;14.2;9.1;;;;;;;2.29;95.06445;940.6707;;;;
2023/12/07 07:20:17;;;;;;;16.6;10.2;;;;;;;2.27;94.81641;940.671;;;;
2023/12/07 07:22:45;;;;;;;16.5;10.9;;;;;;;2.31;94.12793;940.7008;;;;
2023/12/07 07:25:09;;;;;;;17.4;10.7;;;;;;;2.27;93.71875;940.6489;;;;
2023/12/07 07:27:38;;;;;;;18;11.3;;;;;;;2.25;93.42188;940.6581;;;;
2023/12/07 07:30:04;;;;;;;23;11.8;;;;;;;2.25;93.90332;940.7006;;;;
2023/12/07 07:32:31;;;;;;;16.2;9.9;;;;;;;2.33;93.50684;940.6272;;;;
2023/12/07 07:34:56;;;;;;;15.1;10;;;;;;;2.37;93.2666;940.697;;;;
2023/12/07 07:37:26;;;;;;;14.2;8.9;;;;;;;2.43;92.97949;940.6348;;;;
2023/12/07 07:39:59;;;;;;;17;8.8;;;;;;;2.49;92.62207;940.7562;;;;
2023/12/07 07:42:26;;;;;;;12.1;8.6;;;;;;;2.41;93.1748;940.6559;;;;
2023/12/07 07:44:52;;;;;;;14;9.1;;;;;;;2.39;93.26074;940.7418;;;;
2023/12/07 07:47:16;;;;;;;14.3;9.4;;;;;;;2.5;93.00488;940.7634;;;;
2023/12/07 07:49:44;;;;;;;18.4;11.2;;;;;;;2.52;92.43945;940.7346;;;;
2023/12/07 07:52:09;;;;;;;19.6;10.2;;;;;;;2.55;92.17578;940.7523;;;;
2023/12/07 07:54:40;;;;;;;13.7;9;;;;;;;2.63;90.54395;940.7072;;;;
2023/12/07 07:57:17;;;;;;;13.3;8.4;;;;;;;2.62;91.04883;940.733;;;;
2023/12/07 07:59:44;;;;;;;13.1;8.8;;;;;;;2.76;90.33887;940.6265;;;;
2023/12/07 08:02:12;;;;;;;12;8.3;;;;;;;3.17;88.93262;940.6769;;;;
2023/12/07 08:04:41;;;;;;;14.1;8.3;;;;;;;3.66;88.04492;940.6163;;;;
2023/12/07 08:07:07;;;;;;;13.7;7.9;;;;;;;4.08;87.0752;940.5737;;;;
2023/12/07 08:09:36;;;;;;;11.6;7.9;;;;;;;4.82;84.81543;940.5681;;;;
2023/12/07 08:12:06;;;;;;;10.6;6.5;;;;;;;5.53;81.44727;940.4623;;;;
2023/12/07 08:14:30;;;;;;;8.6;6.1;;;;;;;6.13;78.31738;940.4511;;;;
2023/12/07 08:16:57;;;;;;;5.6;4.6;;;;;;;6.78;74.20313;940.4939;;;;
2023/12/07 08:19:22;;;;;;;6.3;4.8;;;;;;;6.95;73.82422;940.4116;;;;
2023/12/07 08:21:52;;;;;;;7.1;4.8;;;;;;;7.35;72.83984;940.3122;;;;
2023/12/07 08:24:17;;;;;;;6.8;4.4;;;;;;;7.76;70.0957;940.3631;;;;
2023/12/07 08:26:43;;;;;;;6.1;4.3;;;;;;;7.98;68.66797;940.3708;;;;
2023/12/07 08:29:10;;;;;;;3.5;3.2;;;;;;;8.31;66.37012;940.3484;;;;
2023/12/07 08:31:35;;;;;;;3.8;3;;;;;;;8.45;64.86816;940.2845;;;;
2023/12/07 08:34:00;;;;;;;3.8;2.9;;;;;;;8.46;64.33691;940.3133;;;;
2023/12/07 08:36:28;;;;;;;4.5;2.8;;;;;;;8.68;63.2666;940.2299;;;;
2023/12/07 08:38:54;;;;;;;3.2;2.6;;;;;;;8.91;63.85742;940.2838;;;;
2023/12/07 08:41:21;;;;;;;3.3;2.6;;;;;;;8.95;61.75781;940.3067;;;;
2023/12/07 08:43:47;;;;;;;3.3;2.6;;;;;;;9.2;61.9082;940.3345;;;;
2023/12/07 08:46:14;;;;;;;4.4;2.3;;;;;;;9.16;60.19531;940.3562;;;;
2023/12/07 08:48:39;;;;;;;3.1;2.4;;;;;;;9.06;60.76074;940.3758;;;;
2023/12/07 08:51:08;;;;;;;2.8;2.2;;;;;;;9.31;59.59082;940.3145;;;;
2023/12/07 08:53:31;;;;;;;4;2.8;;;;;;;9.34;59.35547;940.2452;;;;
2023/12/07 08:56:01;;;;;;;3.7;2.5;;;;;;;9.41;58.52246;940.3039;;;;
2023/12/07 08:58:27;;;;;;;2.5;2.2;;;;;;;9.37;57.76465;940.2441;;;;
2023/12/07 09:00:53;;;;;;;3;2.3;;;;;;;9.52;57.36328;940.1682;;;;
2023/12/07 09:03:27;;;;;;;2.2;2;;;;;;;9.44;56.12305;940.2503;;;;
2023/12/07 09:05:48;;;;;;;2.1;1.9;;;;;;;9.54;56.04492;940.217;;;;
2023/12/07 09:08:14;;;;;;;2.1;1.9;;;;;;;9.58;55.61719;940.1986;;;;
2023/12/07 09:10:40;;;;;;;2.1;1.9;;;;;;;9.79;55.67871;940.2776;;;;
2023/12/07 09:13:05;;;;;;;2;1.8;;;;;;;9.66;55.35352;940.1881;;;;
2023/12/07 09:15:37;;;;;;;2.5;2.2;;;;;;;9.99;55.04492;940.1856;;;;
2023/12/07 09:18:04;;;;;;;2.7;2.3;;;;;;;9.92;54.39551;940.1663;;;;
2023/12/07 09:20:30;;;;;;;2.4;2;;;;;;;10.08;53.35547;940.1872;;;;
2023/12/07 09:23:00;;;;;;;4.2;2.1;;;;;;;9.88;53.04492;940.2133;;;;
2023/12/07 09:25:30;;;;;;;2.4;1.8;;;;;;;9.88;53.21582;940.1855;;;;
2023/12/07 09:28:01;;;;;;;2.7;1.9;;;;;;;10.13;52.61914;940.1847;;;;
2023/12/07 09:30:26;;;;;;;3.7;2.3;;;;;;;9.99;52.31934;940.2062;;;;
2023/12/07 09:32:54;;;;;;;4.6;3.1;;;;;;;9.97;53.25098;940.1328;;;;
2023/12/07 09:35:21;;;;;;;2.9;2.4;;;;;;;10.07;52.71582;940.1138;;;;
2023/12/07 09:37:49;;;;;;;3.2;2.4;;;;;;;9.87;53.375;940.1163;;;;
2023/12/07 09:40:22;;;;;;;3.3;2.2;;;;;;;9.82;51.90918;940.07;;;;
2023/12/07 09:42:49;;;;;;;3.3;2.4;;;;;;;10;52.90039;940.0481;;;;
2023/12/07 09:45:16;;;;;;;2.7;2.4;;;;;;;10.01;50.97559;939.9364;;;;
2023/12/07 09:47:44;;;;;;;2.2;2;;;;;;;10.02;51.43262;940.02;;;;
2023/12/07 09:50:10;;;;;;;2.7;1.8;;;;;;;9.95;50.30566;939.9702;;;;
2023/12/07 09:52:40;;;;;;;1.7;1.6;;;;;;;9.8;50.65234;939.8642;;;;
2023/12/07 09:55:09;;;;;;;2.3;1.6;;;;;;;9.81;51.47461;939.8342;;;;
2023/12/07 09:57:33;;;;;;;1.6;1.5;;;;;;;9.54;51.85352;939.8236;;;;
2023/12/07 10:00:02;;;;;;;2.4;2.1;;;;;;;9.14;52.37305;939.8108;;;;
2023/12/07 10:02:27;;;;;;;4.5;2;;;;;;;9.03;53.33984;939.8192;;;;
2023/12/07 10:04:55;;;;;;;4.2;2.4;;;;;;;8.91;54.96289;939.7828;;;;
2023/12/07 10:07:25;;;;;;;3.4;2.2;;;;;;;8.49;55.53418;939.8641;;;;
2023/12/07 10:09:51;;;;;;;3.3;2.7;;;;;;;8.53;55.93652;939.8465;;;;
2023/12/07 10:12:16;;;;;;;2.4;1.9;;;;;;;8.44;55.9707;939.7899;;;;
2023/12/07 10:14:49;;;;;;;3.4;1.9;;;;;;;8.3;56.08789;939.8039;;;;
2023/12/07 10:17:21;;;;;;;2.2;1.8;;;;;;;8.5;57.06934;939.6746;;;;
2023/12/07 10:19:51;;;;;;;2.1;1.9;;;;;;;8.48;56.77051;939.6581;;;;
2023/12/07 10:22:21;;;;;;;3.3;2.7;;;;;;;8.38;56.00879;939.6489;;;;
2023/12/07 10:24:44;;;;;;;2.5;2.3;;;;;;;8.39;57.31641;939.6339;;;;
2023/12/07 10:27:11;;;;;;;3.5;2.6;;;;;;;8.54;57.16504;939.6141;;;;
2023/12/07 10:29:36;;;;;;;3.6;2.6;;;;;;;8.34;55.69629;939.6147;;;;
2023/12/07 10:32:05;;;;;;;3.7;2.5;;;;;;;8.51;56.96875;939.5365;;;;
2023/12/07 10:34:31;;;;;;;5.1;3.5;;;;;;;8.43;57.40039;939.5248;;;;
2023/12/07 10:37:04;;;;;;;6.3;4.6;;;;;;;8.1;57.40137;939.5109;;;;
2023/12/07 10:39:26;;;;;;;5.3;3.5;;;;;;;7.76;57.48047;939.4771;;;;
2023/12/07 10:41:55;;;;;;;6.9;4.9;;;;;;;7.62;59.33398;939.4358;;;;
2023/12/07 10:44:21;;;;;;;4.3;3.5;;;;;;;7.55;58.18945;939.3578;;;;
2023/12/07 10:46:46;;;;;;;4.7;3.3;;;;;;;7.22;59.55078;939.3879;;;;
2023/12/07 10:49:15;;;;;;;4;3.2;;;;;;;6.82;60.63867;939.3716;;;;
2023/12/07 10:51:40;;;;;;;5.6;3.4;;;;;;;6.68;60.99316;939.4105;;;;
2023/12/07 10:54:08;;;;;;;3.3;2.6;;;;;;;6.62;61.34473;939.3708;;;;
2023/12/07 10:56:34;;;;;;;5;2.6;;;;;;;6.25;61.08984;939.415;;;;
2023/12/07 10:58:59;;;;;;;3.5;2.2;;;;;;;5.89;62.08984;939.4034;;;;
2023/12/07 11:01:24;;;;;;;3.4;2;;;;;;;5.63;62.00684;939.4241;;;;
2023/12/07 11:03:50;;;;;;;3.8;2.3;;;;;;;5.43;62.32617;939.3284;;;;
2023/12/07 11:06:18;;;;;;;3.3;2.2;;;;;;;5.27;62.76465;939.3981;;;;
2023/12/07 11:08:43;;;;;;;3.2;2.2;;;;;;;5.17;63.73242;939.2963;;;;
2023/12/07 11:11:08;;;;;;;3.5;2.5;;;;;;;5.07;64.71973;939.3491;;;;
2023/12/07 11:13:34;;;;;;;4.1;2.8;;;;;;;5.24;65.04883;939.3025;;;;
2023/12/07 11:15:59;;;;;;;3.4;2.5;;;;;;;5.31;64.63281;939.2544;;;;
2023/12/07 11:18:24;;;;;;;4;2.3;;;;;;;5.48;63.59668;939.1964;;;;
2023/12/07 11:20:55;;;;;;;3;2.3;;;;;;;5.37;63.65918;939.1432;;;;
2023/12/07 11:23:24;;;;;;;3.7;2.4;;;;;;;5.18;64.65723;939.1102;;;;
2023/12/07 11:25:49;;;;;;;4.2;3.1;;;;;;;5.15;65.38477;939.0847;;;;
2023/12/07 11:28:16;;;;;;;5.9;2.9;;;;;;;5.09;65.45508;939.0584;;;;
2023/12/07 11:30:41;;;;;;;4.8;2.9;;;;;;;5.28;65.5752;939.0433;;;;
2023/12/07 11:33:09;;;;;;;6.1;4;;;;;;;5.21;66.65723;938.9843;;;;
2023/12/07 11:35:33;;;;;;;3.5;2.5;;;;;;;5.15;66.67188;938.8977;;;;
2023/12/07 11:37:59;;;;;;;4.9;2.5;;;;;;;5.05;65.43848;938.8466;;;;
2023/12/07 11:40:24;;;;;;;2.5;2.3;;;;;;;5.07;67.04199;938.7739;;;;
2023/12/07 11:42:54;;;;;;;3;2.3;;;;;;;4.86;68.49707;938.7134;;;;
2023/12/07 11:45:19;;;;;;;3.7;2.2;;;;;;;4.79;69.52051;938.7162;;;;
2023/12/07 11:47:52;;;;;;;3.2;2.3;;;;;;;4.86;69.28613;938.6605;;;;
2023/12/07 11:50:20;;;;;;;3.4;2.4;;;;;;;4.74;69.28809;938.6801;;;;
2023/12/07 11:52:53;;;;;;;3.3;2.3;;;;;;;4.55;68.94141;938.6319;;;;
2023/12/07 11:55:18;;;;;;;3.6;2.5;;;;;;;4.51;69.86914;938.6849;;;;
2023/12/07 11:57:49;;;;;;;3.5;2.3;;;;;;;4.45;67.05664;938.6642;;;;
2023/12/07 12:00:27;;;;;;;3.4;2.3;;;;;;;4.42;67.04199;938.6174;;;;
2023/12/07 12:02:59;;;;;;;6.5;4;;;;;;;4.43;68.49512;938.5097;;;;
2023/12/07 12:05:23;;;;;;;6;3.8;;;;;;;4.37;69.56641;938.4833;;;;
2023/12/07 12:07:54;;;;;;;5.7;4.5;;;;;;;4.24;69.54492;938.627;;;;
2023/12/07 12:10:27;;;;;;;6.4;4.7;;;;;;;4.28;70.14746;938.6046;;;;
2023/12/07 12:12:52;;;;;;;8.3;5.1;;;;;;;4.09;71.08496;938.5997;;;;
2023/12/07 12:15:17;;;;;;;5.2;3.8;;;;;;;4.03;72.07617;938.4716;;;;
2023/12/07 12:17:52;;;;;;;6.1;2.6;;;;;;;4.03;72.20996;938.4336;;;;
2023/12/07 12:20:18;;;;;;;2.6;2.1;;;;;;;4.12;72.14453;938.4398;;;;
2023/12/07 12:22:43;;;;;;;4;2.3;;;;;;;4.08;73.0498;938.4423;;;;
2023/12/07 12:25:13;;;;;;;3.6;2.6;;;;;;;4.08;73.3418;938.4086;;;;
2023/12/07 12:27:40;;;;;;;5;3.2;;;;;;;4.11;72.63965;938.4302;;;;
2023/12/07 12:30:05;;;;;;;5.8;2.8;;;;;;;3.92;73.4043;938.3279;;;;
2023/12/07 12:32:33;;;;;;;6.8;2.9;;;;;;;3.89;73.5791;938.3436;;;;
2023/12/07 12:34:58;;;;;;;3.5;2.5;;;;;;;3.91;74.1123;938.3522;;;;
2023/12/07 12:37:27;;;;;;;2.8;2;;;;;;;3.82;74.32031;938.3859;;;;
2023/12/07 12:39:52;;;;;;;3.1;2.3;;;;;;;3.82;72.72363;938.3733;;;;
2023/12/07 12:42:18;;;;;;;4.1;2.3;;;;;;;3.82;71.44434;938.2947;;;;
2023/12/07 12:44:47;;;;;;;6.2;3.8;;;;;;;3.79;70.86426;938.2853;;;;
2023/12/07 12:47:12;;;;;;;4.9;3;;;;;;;3.69;71.78125;938.2111;;;;
2023/12/07 12:49:43;;;;;;;4.1;3;;;;;;;3.7;72.37988;938.1658;;;;
2023/12/07 12:52:06;;;;;;;16;8.6;;;;;;;3.69;72.23047;938.2469;;;;
2023/12/07 12:54:35;;;;;;;7.9;6;;;;;;;3.68;71.19531;938.1944;;;;
2023/12/07 12:56:59;;;;;;;5;2.7;;;;;;;3.6;71.25;938.1231;;;;
2023/12/07 12:59:25;;;;;;;3.4;2.3;;;;;;;3.69;70.71289;938.0449;;;;
2023/12/07 13:01:50;;;;;;;2.8;2.3;;;;;;;3.7;71.34375;937.9099;;;;
2023/12/07 13:04:15;;;;;;;3.1;2.2;;;;;;;3.66;73.05566;937.7935;;;;
2023/12/07 13:06:41;;;;;;;2.5;2.1;;;;;;;3.7;73.34473;937.9224;;;;
2023/12/07 13:09:07;;;;;;;2.4;1.9;;;;;;;3.72;71.32422;937.9207;;;;
2023/12/07 13:11:38;;;;;;;2.8;1.7;;;;;;;3.66;71.50684;937.9008;;;;
2023/12/07 13:14:07;;;;;;;3.2;2.1;;;;;;;3.69;71.66895;937.8197;;;;
2023/12/07 13:16:32;;;;;;;3.1;2.3;;;;;;;3.64;72.55957;937.9151;;;;
2023/12/07 13:19:00;;;;;;;3.1;2.1;;;;;;;3.62;73.38672;937.8614;;;;
2023/12/07 13:21:25;;;;;;;4.8;3;;;;;;;3.66;72.56152;937.8455;;;;
2023/12/07 13:23:56;;;;;;;4.6;2.8;;;;;;;3.67;72.89063;937.783;;;;
2023/12/07 13:26:25;;;;;;;4.5;2.5;;;;;;;3.63;73.0957;937.7374;;;;
2023/12/07 13:28:51;;;;;;;5.7;2.2;;;;;;;3.57;73.72656;937.7626;;;;
2023/12/07 13:31:16;;;;;;;4.2;2.8;;;;;;;3.57;72.19727;937.6719;;;;
2023/12/07 13:33:41;;;;;;;4;3.4;;;;;;;3.62;72.83789;937.6097;;;;
2023/12/07 13:36:12;;;;;;;6;3.5;;;;;;;3.55;73.08398;937.514;;;;
2023/12/07 13:38:44;;;;;;;3.9;3.1;;;;;;;3.53;74.22461;937.5433;;;;
2023/12/07 13:41:09;;;;;;;4.9;2.9;;;;;;;3.54;73.75488;937.4986;;;;
2023/12/07 13:43:34;;;;;;;3.1;2.4;;;;;;;3.47;72.77734;937.4791;;;;
2023/12/07 13:46:03;;;;;;;4.1;3;;;;;;;3.38;73.54785;937.4576;;;;
2023/12/07 13:48:29;;;;;;;5;2.7;;;;;;;3.38;74.3457;937.4607;;;;
2023/12/07 13:50:54;;;;;;;3;2.5;;;;;;;3.26;74.95215;937.5051;;;;
2023/12/07 13:53:19;;;;;;;4.6;3.3;;;;;;;3.16;75.74414;937.4126;;;;
2023/12/07 13:55:50;;;;;;;4.7;3.4;;;;;;;3.14;74.41504;937.429;;;;
2023/12/07 13:58:14;;;;;;;5;3.5;;;;;;;2.95;74.44922;937.5266;;;;
2023/12/07 14:00:45;;;;;;;5.1;3.7;;;;;;;2.86;75.51172;937.5078;;;;
2023/12/07 14:03:06;;;;;;;6.1;4.1;;;;;;;2.83;76.70508;937.4177;;;;
2023/12/07 14:05:39;;;;;;;18.1;8.8;;;;;;;2.66;77.48145;937.543;;;;
2023/12/07 14:08:04;;;;;;;9.6;6.9;;;;;;;2.56;78.53906;937.4706;;;;
2023/12/07 14:10:32;;;;;;;7.6;5.2;;;;;;;2.59;78.49902;937.5645;;;;
2023/12/07 14:13:02;;;;;;;7.3;4.8;;;;;;;2.65;78.3877;937.5678;;;;
2023/12/07 14:15:27;;;;;;;7.6;3.9;;;;;;;2.43;78.76172;937.4462;;;;
2023/12/07 14:17:58;;;;;;;5.5;4.4;;;;;;;2.36;79.35352;937.4803;;;;
2023/12/07 14:20:24;;;;;;;8.1;4.6;;;;;;;2.34;79.63965;937.4445;;;;
2023/12/07 14:22:48;;;;;;;10.4;6.6;;;;;;;2.21;79.3916;937.4325;;;;
2023/12/07 14:25:12;;;;;;;10.8;6.8;;;;;;;2.23;78.34277;937.2874;;;;
2023/12/07 14:27:39;;;;;;;10.4;6.1;;;;;;;2.27;78.36426;937.3464;;;;
2023/12/07 14:30:04;;;;;;;11.8;7.1;;;;;;;2.19;78.91797;937.32;;;;